Time,TemperatureF,DewpointF,PressureIn,WindDirection,WindDirectionDegrees,WindSpeedMPH,WindSpeedGustMPH,Humidity,HourlyPrecipIn,Conditions,Clouds,dailyrainin,SoftwareType,DateUTC
2013-06-29 00:14:00,64.9,63.1,29.56,WSW,247,2.2,-999.0,94,-99.99,,,0.00,Acu-Link.com,2013-06-29 04:14:00,
2013-06-29 00:29:00,64.9,62.8,29.56,WSW,247,2.7,-999.0,93,-99.99,,,0.00,Acu-Link.com,2013-06-29 04:29:00,
2013-06-29 00:44:00,64.9,62.8,29.56,SW,225,3.2,-999.0,93,-99.99,,,0.00,Acu-Link.com,2013-06-29 04:44:00,
2013-06-29 00:59:00,64.9,62.8,29.56,WSW,247,2.7,-999.0,93,-99.99,,,0.00,Acu-Link.com,2013-06-29 04:59:00,
2013-06-29 01:15:00,64.9,62.5,29.56,SSW,202,3.7,-999.0,92,-99.99,,,0.00,Acu-Link.com,2013-06-29 05:15:00,
2013-06-29 01:30:00,64.9,62.5,29.55,SW,225,4.7,-999.0,92,-99.99,,,0.00,Acu-Link.com,2013-06-29 05:30:00,
2013-06-29 01:45:00,64.8,62.4,29.55,WSW,247,4.2,-999.0,92,-99.99,,,0.00,Acu-Link.com,2013-06-29 05:45:00,
2013-06-29 02:01:00,64.8,62.4,29.53,WSW,247,2.7,-999.0,92,-99.99,,,0.00,Acu-Link.com,2013-06-29 06:01:00,
2013-06-29 02:16:00,64.2,61.8,29.53,WSW,247,2.7,-999.0,92,-99.99,,,0.00,Acu-Link.com,2013-06-29 06:16:00,
2013-06-29 02:31:00,63.9,61.8,29.53,WSW,247,2.7,-999.0,93,-99.99,,,0.00,Acu-Link.com,2013-06-29 06:31:00,
2013-06-29 02:46:00,63.3,61.5,29.53,WSW,247,3.2,-999.0,94,-99.99,,,0.00,Acu-Link.com,2013-06-29 06:46:00,
2013-06-29 03:01:00,63.1,61.6,29.53,WSW,247,2.7,-999.0,95,-99.99,,,0.00,Acu-Link.com,2013-06-29 07:01:00,
2013-06-29 03:17:00,63.1,61.6,29.54,SSW,202,2.7,-999.0,95,-99.99,,,0.00,Acu-Link.com,2013-06-29 07:17:00,
2013-06-29 03:32:00,62.2,61.0,29.53,WNW,292,1.1,-999.0,96,-99.99,,,0.00,Acu-Link.com,2013-06-29 07:32:00,
2013-06-29 03:47:00,61.2,60.6,29.53,WSW,247,0.0,-999.0,98,-99.99,,,0.00,Acu-Link.com,2013-06-29 07:47:00,
2013-06-29 04:03:00,60.4,60.1,29.53,West,270,2.7,-999.0,99,-99.99,,,0.00,Acu-Link.com,2013-06-29 08:03:00,
2013-06-29 04:18:00,60.3,60.0,29.53,West,270,2.7,-999.0,99,-99.99,,,0.00,Acu-Link.com,2013-06-29 08:18:00,
2013-06-29 04:33:00,60.3,60.0,29.53,WSW,247,1.1,-999.0,99,-99.99,,,0.00,Acu-Link.com,2013-06-29 08:33:00,
2013-06-29 04:48:00,59.9,59.6,29.53,WSW,247,1.7,-999.0,99,-99.99,,,0.00,Acu-Link.com,2013-06-29 08:48:00,
2013-06-29 05:03:00,59.7,59.4,29.53,SSE,157,0.0,-999.0,99,-99.99,,,0.00,Acu-Link.com,2013-06-29 09:03:00,
2013-06-29 05:19:00,59.7,59.4,29.54,SW,225,1.7,-999.0,99,-99.99,,,0.00,Acu-Link.com,2013-06-29 09:19:00,
2013-06-29 05:34:00,59.4,59.1,29.54,ESE,112,2.2,-999.0,99,-99.99,,,0.00,Acu-Link.com,2013-06-29 09:34:00,
2013-06-29 05:49:00,60.6,60.3,29.56,SSE,157,3.7,-999.0,99,-99.99,,,0.00,Acu-Link.com,2013-06-29 09:49:00,
2013-06-29 06:04:00,60.3,60.0,29.56,SE,135,0.0,-999.0,99,-99.99,,,0.00,Acu-Link.com,2013-06-29 10:04:00,
2013-06-29 06:20:00,61.2,60.9,29.56,SSE,157,2.7,-999.0,99,-99.99,,,0.00,Acu-Link.com,2013-06-29 10:20:00,
2013-06-29 06:35:00,61.5,61.2,29.57,West,270,0.0,-999.0,99,-99.99,,,0.00,Acu-Link.com,2013-06-29 10:35:00,
2013-06-29 06:50:00,62.2,61.9,29.56,SSE,157,0.0,-999.0,99,-99.99,,,0.00,Acu-Link.com,2013-06-29 10:50:00,
2013-06-29 07:05:00,63.0,62.7,29.57,ESE,112,0.0,-999.0,99,-99.99,,,0.00,Acu-Link.com,2013-06-29 11:05:00,
2013-06-29 07:20:00,63.5,63.2,29.57,South,180,2.2,-999.0,99,-99.99,,,0.00,Acu-Link.com,2013-06-29 11:20:00,
2013-06-29 07:36:00,63.7,63.1,29.57,WSW,247,1.7,-999.0,98,-99.99,,,0.00,Acu-Link.com,2013-06-29 11:36:00,
2013-06-29 07:51:00,66.0,64.5,29.57,SW,225,1.1,-999.0,95,-99.99,,,0.00,Acu-Link.com,2013-06-29 11:51:00,
2013-06-29 08:06:00,66.6,64.5,29.57,SW,225,2.7,-999.0,93,-99.99,,,0.00,Acu-Link.com,2013-06-29 12:06:00,
2013-06-29 08:22:00,67.1,64.7,29.57,WSW,247,2.2,-999.0,92,-99.99,,,0.00,Acu-Link.com,2013-06-29 12:22:00,
2013-06-29 08:37:00,71.2,66.1,29.57,West,270,0.0,-999.0,84,-99.99,,,0.00,Acu-Link.com,2013-06-29 12:37:00,
2013-06-29 08:52:00,69.8,64.7,29.58,SW,225,0.0,-999.0,84,-99.99,,,0.00,Acu-Link.com,2013-06-29 12:52:00,
2013-06-29 09:08:00,67.5,64.5,29.58,SSE,157,2.2,-999.0,90,-99.99,,,0.00,Acu-Link.com,2013-06-29 13:08:00,
2013-06-29 09:23:00,66.6,63.9,29.59,SW,225,2.7,-999.0,91,-99.99,,,0.00,Acu-Link.com,2013-06-29 13:23:00,
2013-06-29 09:38:00,65.5,63.7,29.59,SW,225,2.7,-999.0,94,-99.99,,,0.00,Acu-Link.com,2013-06-29 13:38:00,
2013-06-29 09:53:00,65.8,63.7,29.58,SW,225,1.7,-999.0,93,-99.99,,,0.00,Acu-Link.com,2013-06-29 13:53:00,
2013-06-29 10:08:00,66.2,64.1,29.58,SW,225,1.1,-999.0,93,-99.99,,,0.00,Acu-Link.com,2013-06-29 14:08:00,
2013-06-29 10:24:00,66.7,64.9,29.57,SSW,202,2.2,-999.0,94,-99.99,,,0.00,Acu-Link.com,2013-06-29 14:24:00,
2013-06-29 10:39:00,67.1,65.0,29.57,SW,225,2.2,-999.0,93,-99.99,,,0.00,Acu-Link.com,2013-06-29 14:39:00,
2013-06-29 10:54:00,66.7,63.7,29.58,WSW,247,2.7,-999.0,90,-99.99,,,0.00,Acu-Link.com,2013-06-29 14:54:00,
2013-06-29 11:10:00,68.2,63.8,29.58,WSW,247,1.7,-999.0,86,-99.99,,,0.00,Acu-Link.com,2013-06-29 15:10:00,
2013-06-29 11:25:00,70.9,64.4,29.57,SW,225,3.2,-999.0,80,-99.99,,,0.00,Acu-Link.com,2013-06-29 15:25:00,
2013-06-29 11:40:00,72.5,65.6,29.57,West,270,2.7,-999.0,79,-99.99,,,0.00,Acu-Link.com,2013-06-29 15:40:00,
2013-06-29 11:55:00,73.6,66.7,29.57,SW,225,2.7,-999.0,79,-99.99,,,0.00,Acu-Link.com,2013-06-29 15:55:00,
2013-06-29 12:11:00,74.8,64.8,29.57,South,180,1.7,-999.0,71,-99.99,,,0.00,Acu-Link.com,2013-06-29 16:11:00,
2013-06-29 12:26:00,76.1,65.2,29.57,West,270,2.2,-999.0,69,-99.99,,,0.00,Acu-Link.com,2013-06-29 16:26:00,
2013-06-29 12:41:00,75.9,66.6,29.57,SW,225,2.2,-999.0,73,-99.99,,,0.00,Acu-Link.com,2013-06-29 16:41:00,
2013-06-29 12:57:00,75.6,65.9,29.56,WSW,247,1.7,-999.0,72,-99.99,,,0.00,Acu-Link.com,2013-06-29 16:57:00,
2013-06-29 13:12:00,76.1,66.0,29.56,WSW,247,3.2,-999.0,71,-99.99,,,0.00,Acu-Link.com,2013-06-29 17:12:00,
2013-06-29 13:27:00,77.4,67.2,29.56,SW,225,2.2,-999.0,71,-99.99,,,0.00,Acu-Link.com,2013-06-29 17:27:00,
2013-06-29 13:42:00,77.0,64.3,29.56,West,270,2.2,-999.0,65,-99.99,,,0.00,Acu-Link.com,2013-06-29 17:42:00,
2013-06-29 13:58:00,77.9,66.5,29.55,SSW,202,3.2,-999.0,68,-99.99,,,0.00,Acu-Link.com,2013-06-29 17:58:00,
2013-06-29 14:13:00,76.1,63.9,29.55,WSW,247,2.2,-999.0,66,-99.99,,,0.00,Acu-Link.com,2013-06-29 18:13:00,
2013-06-29 14:28:00,77.7,67.1,29.55,SW,225,2.2,-999.0,70,-99.99,,,0.00,Acu-Link.com,2013-06-29 18:28:00,
2013-06-29 14:43:00,79.7,67.3,29.55,SSW,202,1.7,-999.0,66,-99.99,,,0.00,Acu-Link.com,2013-06-29 18:43:00,
2013-06-29 14:59:00,77.7,67.5,29.54,ESE,112,5.8,-999.0,71,-99.99,,,0.00,Acu-Link.com,2013-06-29 18:59:00,
2013-06-29 15:14:00,75.2,66.7,29.54,SSE,157,3.2,-999.0,75,-99.99,,,0.00,Acu-Link.com,2013-06-29 19:14:00,
2013-06-29 15:29:00,74.8,66.7,29.54,South,180,5.3,-999.0,76,-99.99,,,0.00,Acu-Link.com,2013-06-29 19:29:00,
2013-06-29 15:44:00,74.3,67.0,29.54,South,180,2.2,-999.0,78,-99.99,,,0.00,Acu-Link.com,2013-06-29 19:44:00,
2013-06-29 16:00:00,75.2,66.7,29.54,SSW,202,2.7,-999.0,75,-99.99,,,0.00,Acu-Link.com,2013-06-29 20:00:00,
2013-06-29 16:15:00,76.5,66.4,29.55,SW,225,2.7,-999.0,71,-99.99,,,0.00,Acu-Link.com,2013-06-29 20:15:00,
2013-06-29 16:30:00,77.2,67.1,29.55,SE,135,3.2,-999.0,71,-99.99,,,0.00,Acu-Link.com,2013-06-29 20:30:00,
2013-06-29 16:45:00,78.3,68.1,29.55,SW,225,2.7,-999.0,71,-99.99,,,0.00,Acu-Link.com,2013-06-29 20:45:00,
2013-06-29 17:01:00,79.0,67.9,29.54,SW,225,1.7,-999.0,69,-99.99,,,0.00,Acu-Link.com,2013-06-29 21:01:00,
2013-06-29 17:16:00,77.2,67.1,29.54,SSW,202,2.2,-999.0,71,-99.99,,,0.00,Acu-Link.com,2013-06-29 21:16:00,
2013-06-29 17:31:00,74.7,67.4,29.56,WSW,247,1.7,-999.0,78,-99.99,,,0.00,Acu-Link.com,2013-06-29 21:31:00,
2013-06-29 17:47:00,79.3,69.5,29.55,South,180,1.7,-999.0,72,-99.99,,,0.00,Acu-Link.com,2013-06-29 21:47:00,
2013-06-29 18:02:00,81.1,68.6,29.55,ESE,112,2.7,-999.0,66,-99.99,,,0.00,Acu-Link.com,2013-06-29 22:02:00,
2013-06-29 18:17:00,77.7,68.7,29.54,SW,225,2.2,-999.0,74,-99.99,,,0.00,Acu-Link.com,2013-06-29 22:17:00,
2013-06-29 18:33:00,74.7,68.8,29.56,SW,225,0.0,-999.0,82,-99.99,,,0.00,Acu-Link.com,2013-06-29 22:33:00,
2013-06-29 18:48:00,78.1,70.3,29.56,SW,225,0.0,-999.0,77,-99.99,,,0.00,Acu-Link.com,2013-06-29 22:48:00,
2013-06-29 19:03:00,78.3,69.7,29.56,SSW,202,2.7,-999.0,75,-99.99,,,0.00,Acu-Link.com,2013-06-29 23:03:00,
2013-06-29 19:18:00,72.9,67.8,29.58,SW,225,3.7,-999.0,84,-99.99,,,0.01,Acu-Link.com,2013-06-29 23:18:00,
2013-06-29 19:34:00,70.3,66.9,29.58,NNW,337,0.0,-999.0,89,-99.99,,,0.35,Acu-Link.com,2013-06-29 23:34:00,
2013-06-29 19:49:00,67.5,66.9,29.59,SE,135,1.7,-999.0,98,-99.99,,,0.35,Acu-Link.com,2013-06-29 23:49:00,
2013-06-29 20:04:00,67.1,66.8,29.59,West,270,0.0,-999.0,99,-99.99,,,0.35,Acu-Link.com,2013-06-30 00:04:00,
2013-06-29 20:20:00,67.1,66.8,29.59,SW,225,0.0,-999.0,99,-99.99,,,0.35,Acu-Link.com,2013-06-30 00:20:00,
2013-06-29 20:35:00,66.6,66.3,29.60,SSW,202,3.2,-999.0,99,-99.99,,,0.35,Acu-Link.com,2013-06-30 00:35:00,
2013-06-29 20:50:00,64.4,62.9,29.60,WSW,247,0.0,-999.0,95,-99.99,,,0.43,Acu-Link.com,2013-06-30 00:50:00,
2013-06-29 21:06:00,63.0,62.7,29.60,SSW,202,2.2,-999.0,99,-99.99,,,0.50,Acu-Link.com,2013-06-30 01:06:00,
2013-06-29 21:21:00,63.1,62.8,29.60,SW,225,2.2,-999.0,99,-99.99,,,0.50,Acu-Link.com,2013-06-30 01:21:00,
2013-06-29 21:36:00,63.5,63.2,29.61,SW,225,2.7,-999.0,99,-99.99,,,0.51,Acu-Link.com,2013-06-30 01:36:00,
2013-06-29 21:51:00,63.3,63.0,29.62,SW,225,2.2,-999.0,99,-99.99,,,0.51,Acu-Link.com,2013-06-30 01:51:00,
2013-06-29 22:06:00,63.7,63.4,29.63,South,180,2.2,-999.0,99,-99.99,,,0.51,Acu-Link.com,2013-06-30 02:06:00,
2013-06-29 22:21:00,64.0,63.7,29.63,WSW,247,0.0,-999.0,99,-99.99,,,0.51,Acu-Link.com,2013-06-30 02:21:00,
2013-06-29 22:36:00,64.2,63.9,29.64,SW,225,0.0,-999.0,99,-99.99,,,0.51,Acu-Link.com,2013-06-30 02:36:00,
2013-06-29 22:52:00,64.4,64.1,29.64,SSW,202,2.2,-999.0,99,-99.99,,,0.52,Acu-Link.com,2013-06-30 02:52:00,
2013-06-29 23:07:00,64.2,63.9,29.64,SSW,202,0.0,-999.0,99,-99.99,,,0.52,Acu-Link.com,2013-06-30 03:07:00,
2013-06-29 23:22:00,64.0,63.7,29.64,South,180,0.0,-999.0,99,-99.99,,,0.52,Acu-Link.com,2013-06-30 03:22:00,
2013-06-29 23:38:00,64.0,63.7,29.65,ESE,112,0.0,-999.0,99,-99.99,,,0.52,Acu-Link.com,2013-06-30 03:38:00,
2013-06-29 23:53:00,64.4,64.1,29.65,South,180,0.0,-999.0,99,-99.99,,,0.52,Acu-Link.com,2013-06-30 03:53:00,